createdAt,value
2023-02-09T00:02:18.002Z,21.30
2023-02-09T00:04:46.621Z,16.70
2023-02-09T00:07:15.047Z,16.10
2023-02-09T00:09:45.100Z,16.80
2023-02-09T00:12:31.847Z,16.70
2023-02-09T00:15:00.361Z,17.50
2023-02-09T00:17:28.911Z,19.20
2023-02-09T00:20:00.279Z,15.90
2023-02-09T00:22:28.863Z,15.00
2023-02-09T00:24:57.439Z,9.10
2023-02-09T00:27:26.061Z,14.20
2023-02-09T00:29:54.491Z,13.30
2023-02-09T00:32:22.925Z,17.90
2023-02-09T00:34:51.400Z,20.20
2023-02-09T00:37:19.852Z,17.30
2023-02-09T00:39:48.278Z,14.70
2023-02-09T00:42:16.814Z,14.70
2023-02-09T00:44:46.236Z,12.20
2023-02-09T00:47:14.728Z,16.30
2023-02-09T00:49:43.201Z,13.80
2023-02-09T00:52:11.754Z,11.70
2023-02-09T00:54:40.288Z,14.10
2023-02-09T00:57:08.800Z,14.30
2023-02-09T00:59:40.787Z,13.60
2023-02-09T01:02:10.489Z,13.10
2023-02-09T01:04:40.586Z,14.60
2023-02-09T01:07:09.581Z,15.90
2023-02-09T01:09:38.071Z,21.30
2023-02-09T01:12:08.713Z,14.90
2023-02-09T01:14:39.457Z,12.50
2023-02-09T01:17:08.068Z,11.80
2023-02-09T01:19:36.805Z,12.80
2023-02-09T01:22:05.431Z,19.10
2023-02-09T01:24:34.005Z,17.70
2023-02-09T01:27:03.437Z,16.30
2023-02-09T01:29:33.044Z,13.30
2023-02-09T01:32:01.537Z,14.10
2023-02-09T01:34:30.258Z,17.70
2023-02-09T01:36:58.774Z,17.10
2023-02-09T01:39:27.274Z,17.40
2023-02-09T01:41:55.744Z,7.00
2023-02-09T01:44:24.065Z,13.80
2023-02-09T01:46:53.114Z,14.40
2023-02-09T01:49:28.170Z,18.40
2023-02-09T01:52:12.784Z,20.10
2023-02-09T01:54:52.663Z,13.60
2023-02-09T01:57:31.641Z,13.70
2023-02-09T02:00:07.803Z,14.40
2023-02-09T02:02:52.094Z,15.40
2023-02-09T02:05:23.190Z,6.50
2023-02-09T02:08:11.389Z,17.40
2023-02-09T02:10:39.837Z,15.20
2023-02-09T02:13:09.039Z,15.20
2023-02-09T02:15:50.007Z,12.90
2023-02-09T02:18:45.888Z,13.70
2023-02-09T02:21:29.309Z,12.30
2023-02-09T02:24:54.238Z,16.20
2023-02-09T02:30:24.476Z,6.80
2023-02-09T02:33:07.549Z,11.80
2023-02-09T02:36:27.252Z,17.00
2023-02-09T02:39:10.191Z,6.60
2023-02-09T02:41:57.288Z,13.50
2023-02-09T02:44:29.847Z,15.90
2023-02-09T02:47:04.778Z,10.60
2023-02-09T02:49:49.373Z,16.00
2023-02-09T02:52:18.004Z,17.50
2023-02-09T02:55:02.956Z,14.30
2023-02-09T02:57:34.620Z,15.70
2023-02-09T03:00:19.386Z,14.50
2023-02-09T03:02:54.968Z,12.60
2023-02-09T03:05:26.531Z,16.10
2023-02-09T03:07:54.954Z,15.20
2023-02-09T03:10:37.305Z,15.00
2023-02-09T03:13:23.864Z,14.30
2023-02-09T03:16:26.512Z,14.70
2023-02-09T03:19:04.268Z,11.60
2023-02-09T03:22:03.366Z,13.30
2023-02-09T03:24:53.709Z,12.90
2023-02-09T03:27:24.949Z,10.60
2023-02-09T03:29:59.313Z,12.90
2023-02-09T03:32:28.606Z,13.30
2023-02-09T03:34:58.065Z,15.60
2023-02-09T03:37:26.658Z,15.50
2023-02-09T03:39:55.106Z,15.50
2023-02-09T03:42:23.575Z,12.40
2023-02-09T03:44:52.021Z,13.80
2023-02-09T03:47:20.451Z,11.10
2023-02-09T03:49:48.892Z,17.00
2023-02-09T03:52:17.723Z,13.50
2023-02-09T03:54:46.165Z,15.90
2023-02-09T03:57:14.672Z,14.20
2023-02-09T03:59:43.324Z,13.40
2023-02-09T04:02:11.972Z,16.00
2023-02-09T04:04:40.548Z,12.30
2023-02-09T04:07:08.992Z,15.70
2023-02-09T04:09:37.852Z,19.60
2023-02-09T04:12:06.630Z,21.50
2023-02-09T04:14:35.109Z,16.10
2023-02-09T04:17:03.847Z,13.70
2023-02-09T04:19:32.294Z,15.30
2023-02-09T04:22:01.229Z,14.90
2023-02-09T04:24:29.781Z,20.00
2023-02-09T04:26:58.253Z,17.80
2023-02-09T04:29:27.278Z,15.30
2023-02-09T04:31:56.927Z,20.10
2023-02-09T04:34:25.397Z,14.50
2023-02-09T04:36:53.781Z,13.10
2023-02-09T04:39:22.249Z,12.60
2023-02-09T04:41:50.683Z,16.90
2023-02-09T04:44:19.324Z,17.70
2023-02-09T04:46:47.805Z,17.50
2023-02-09T04:49:16.315Z,15.30
2023-02-09T04:51:44.729Z,14.80
2023-02-09T04:54:13.240Z,14.10
2023-02-09T04:56:41.678Z,20.90
2023-02-09T04:59:29.615Z,14.10
2023-02-09T05:01:58.080Z,12.30
2023-02-09T05:04:26.511Z,15.30
2023-02-09T05:06:54.908Z,13.40
2023-02-09T05:09:23.327Z,13.80
2023-02-09T05:11:51.782Z,12.00
2023-02-09T05:14:20.296Z,13.10
2023-02-09T05:16:48.800Z,13.30
2023-02-09T05:19:17.245Z,15.00
2023-02-09T05:21:45.731Z,10.20
2023-02-09T05:24:14.148Z,11.50
2023-02-09T05:26:42.591Z,14.80
2023-02-09T05:29:11.112Z,14.10
2023-02-09T05:31:39.630Z,16.80
2023-02-09T05:34:08.195Z,15.30
2023-02-09T05:36:36.661Z,14.50
2023-02-09T05:39:05.144Z,14.30
2023-02-09T05:41:52.418Z,12.50
2023-02-09T05:44:20.957Z,15.10
2023-02-09T05:46:49.380Z,13.60
2023-02-09T05:49:17.956Z,13.10
2023-02-09T05:51:46.400Z,13.20
2023-02-09T05:54:14.828Z,12.70
2023-02-09T05:56:44.265Z,12.00
2023-02-09T05:59:12.713Z,12.40
2023-02-09T06:01:41.099Z,14.10
2023-02-09T06:04:09.823Z,16.10
2023-02-09T06:06:38.399Z,14.00
2023-02-09T06:09:07.124Z,14.60
2023-02-09T06:11:35.836Z,14.40
2023-02-09T06:14:04.303Z,11.40
2023-02-09T06:16:33.484Z,12.20
2023-02-09T06:19:02.184Z,15.50
2023-02-09T06:21:30.621Z,15.40
2023-02-09T06:23:59.129Z,17.10
2023-02-09T06:26:27.506Z,14.20
2023-02-09T06:28:56.003Z,14.50
2023-02-09T06:31:24.561Z,15.10
2023-02-09T06:33:52.998Z,15.80
2023-02-09T06:36:21.532Z,14.20
2023-02-09T06:38:50.002Z,14.90
2023-02-09T06:41:18.548Z,12.70
2023-02-09T06:43:47.092Z,15.10
2023-02-09T06:46:15.967Z,17.40
2023-02-09T06:48:44.532Z,15.20
2023-02-09T06:51:15.264Z,15.00
2023-02-09T06:53:44.694Z,18.10
2023-02-09T06:56:13.924Z,17.50
2023-02-09T06:58:42.781Z,17.30
2023-02-09T07:01:15.833Z,16.70
2023-02-09T07:03:45.158Z,16.60
2023-02-09T07:06:17.745Z,22.40
2023-02-09T07:08:46.415Z,20.30
2023-02-09T07:11:17.418Z,18.80
2023-02-09T07:13:46.815Z,16.40
2023-02-09T07:16:15.676Z,21.80
2023-02-09T07:18:44.257Z,22.70
2023-02-09T07:21:18.583Z,29.60
2023-02-09T07:23:48.263Z,27.80
2023-02-09T07:26:18.768Z,20.50
2023-02-09T07:28:47.327Z,30.00
2023-02-09T07:31:16.971Z,29.00
2023-02-09T07:33:46.177Z,25.30
2023-02-09T07:36:16.974Z,17.00
2023-02-09T07:38:45.923Z,10.70
2023-02-09T07:41:18.958Z,8.20
2023-02-09T07:43:47.726Z,6.70
2023-02-09T07:46:18.985Z,5.70
2023-02-09T07:48:52.487Z,16.80
2023-02-09T07:51:25.823Z,14.70
2023-02-09T07:53:56.111Z,17.20
2023-02-09T07:56:25.654Z,10.00
2023-02-09T07:58:55.881Z,13.90
2023-02-09T08:01:26.001Z,17.90
2023-02-09T08:03:54.459Z,12.80
2023-02-09T08:06:46.591Z,14.80
2023-02-09T08:09:16.987Z,9.80
2023-02-09T08:12:02.971Z,8.20
2023-02-09T08:14:43.757Z,11.10
2023-02-09T08:17:20.222Z,16.70
2023-02-09T08:20:14.661Z,20.80
2023-02-09T08:22:49.112Z,15.90
2023-02-09T08:25:21.828Z,18.80
2023-02-09T08:27:52.157Z,12.70
2023-02-09T08:30:21.017Z,16.30
2023-02-09T08:32:49.487Z,11.40
2023-02-09T08:35:18.338Z,11.90
2023-02-09T08:37:46.817Z,20.50
2023-02-09T08:40:15.437Z,19.70
2023-02-09T08:42:43.909Z,13.50
2023-02-09T08:45:12.286Z,13.30
2023-02-09T08:47:40.851Z,15.90
2023-02-09T08:50:09.984Z,9.40
2023-02-09T08:52:38.512Z,11.40
2023-02-09T08:55:07.540Z,14.90
2023-02-09T08:57:43.903Z,16.10
2023-02-09T09:00:15.387Z,13.20
2023-02-09T09:02:43.952Z,19.70
2023-02-09T09:05:12.475Z,9.50
2023-02-09T09:07:41.239Z,8.10
2023-02-09T09:10:10.068Z,15.40
2023-02-09T09:12:38.589Z,18.90
2023-02-09T09:15:07.504Z,12.30
2023-02-09T09:17:35.958Z,16.20
2023-02-09T09:20:05.372Z,14.60
2023-02-09T09:22:33.882Z,18.60
2023-02-09T09:25:03.709Z,17.90
2023-02-09T09:27:36.251Z,17.70
2023-02-09T09:30:06.084Z,16.30
2023-02-09T09:32:34.942Z,16.40
2023-02-09T09:35:03.698Z,9.80
2023-02-09T09:37:33.221Z,12.40
2023-02-09T09:40:01.737Z,16.30
2023-02-09T09:42:47.069Z,14.20
2023-02-09T09:45:21.374Z,13.90
2023-02-09T09:47:50.562Z,21.00
2023-02-09T09:50:48.346Z,11.60
2023-02-09T09:53:28.862Z,9.90
2023-02-09T09:56:01.811Z,11.80
2023-02-09T09:58:32.478Z,10.60
2023-02-09T10:01:01.492Z,7.50
2023-02-09T10:03:29.996Z,13.40
2023-02-09T10:06:14.132Z,9.20
2023-02-09T10:08:56.063Z,11.20
2023-02-09T10:11:34.054Z,19.10
2023-02-09T10:14:02.503Z,16.80
2023-02-09T10:16:35.170Z,14.60
2023-02-09T10:19:19.334Z,16.90
2023-02-09T10:21:49.237Z,9.90
2023-02-09T10:24:43.884Z,16.80
2023-02-09T10:27:29.404Z,17.20
2023-02-09T10:30:27.265Z,12.60
2023-02-09T10:32:59.992Z,16.10
2023-02-09T10:35:41.921Z,8.10
2023-02-09T10:38:20.583Z,11.80
2023-02-09T10:40:50.032Z,8.00
2023-02-09T10:43:32.035Z,12.20
2023-02-09T10:46:11.117Z,6.00
2023-02-09T10:48:43.381Z,10.10
2023-02-09T10:51:29.861Z,9.00
2023-02-09T10:54:20.598Z,16.40
2023-02-09T10:56:49.563Z,16.10
2023-02-09T10:59:24.929Z,16.90
2023-02-09T11:02:00.803Z,15.20
2023-02-09T11:04:41.246Z,9.00
2023-02-09T11:07:15.217Z,15.90
2023-02-09T11:09:50.556Z,15.10
2023-02-09T11:12:22.758Z,16.80
2023-02-09T11:14:51.752Z,11.20
2023-02-09T11:17:36.794Z,13.10
2023-02-09T11:20:40.127Z,16.10
2023-02-09T11:23:55.540Z,9.80
2023-02-09T11:26:51.195Z,9.30
2023-02-09T11:29:34.618Z,17.10
2023-02-09T11:32:38.481Z,15.20
2023-02-09T11:35:24.323Z,14.10
2023-02-09T11:38:15.897Z,14.40
2023-02-09T11:40:52.061Z,15.90
2023-02-09T11:43:32.666Z,14.30
2023-02-09T11:46:13.542Z,12.00
2023-02-09T11:48:50.718Z,11.20
2023-02-09T11:51:22.642Z,14.30
2023-02-09T11:54:16.529Z,13.50
2023-02-09T11:56:51.184Z,15.90
2023-02-09T11:59:22.468Z,14.00
2023-02-09T12:02:06.384Z,11.50
2023-02-09T12:04:47.437Z,11.60
2023-02-09T12:07:40.894Z,12.30
2023-02-09T12:10:28.671Z,11.40
2023-02-09T12:13:43.662Z,11.90
2023-02-09T12:16:26.802Z,9.30
2023-02-09T12:18:56.786Z,12.40
2023-02-09T12:21:38.361Z,9.90
2023-02-09T12:24:40.431Z,11.00
2023-02-09T12:27:26.365Z,13.50
2023-02-09T12:29:54.860Z,13.40
2023-02-09T12:32:44.562Z,14.10
2023-02-09T12:35:39.160Z,13.50
2023-02-09T12:38:20.148Z,15.10
2023-02-09T12:41:07.214Z,13.00
2023-02-09T12:43:38.007Z,14.40
2023-02-09T12:46:29.713Z,13.00
2023-02-09T12:49:01.307Z,16.80
2023-02-09T12:51:51.853Z,15.30
2023-02-09T12:54:42.004Z,15.70
2023-02-09T12:57:17.266Z,15.40
2023-02-09T13:00:00.963Z,17.40
2023-02-09T13:02:50.123Z,15.70
2023-02-09T13:05:24.844Z,13.10
2023-02-09T13:08:11.769Z,18.90
2023-02-09T13:10:58.090Z,15.10
2023-02-09T13:13:46.711Z,15.50
2023-02-09T13:16:29.326Z,16.00
2023-02-09T13:19:18.118Z,11.10
2023-02-09T13:22:19.191Z,10.80
2023-02-09T13:25:00.958Z,8.90
2023-02-09T13:27:30.230Z,11.40
2023-02-09T13:29:59.872Z,9.10
2023-02-09T13:32:58.209Z,11.20
2023-02-09T13:35:34.597Z,11.80
2023-02-09T13:38:18.512Z,11.30
2023-02-09T13:40:51.266Z,9.00
2023-02-09T13:43:32.725Z,6.80
2023-02-09T13:46:02.469Z,6.50
2023-02-09T13:48:38.602Z,6.80
2023-02-09T13:51:20.350Z,9.40
2023-02-09T13:54:03.559Z,16.50
2023-02-09T13:56:34.047Z,28.30
2023-02-09T13:59:02.873Z,36.60
2023-02-09T14:01:37.118Z,14.40
2023-02-09T14:04:18.122Z,12.80
2023-02-09T14:07:14.902Z,12.90
2023-02-09T14:09:55.046Z,15.20
2023-02-09T14:12:52.658Z,15.30
2023-02-09T14:16:03.058Z,16.30
2023-02-09T14:18:44.489Z,13.20
2023-02-09T14:21:15.575Z,13.80
2023-02-09T14:23:57.287Z,11.50
2023-02-09T14:26:33.308Z,10.80
2023-02-09T14:29:19.254Z,10.70
2023-02-09T14:31:59.288Z,10.50
2023-02-09T14:34:39.948Z,12.40
2023-02-09T14:37:11.333Z,11.60
2023-02-09T14:40:08.325Z,10.10
2023-02-09T14:42:55.488Z,9.90
2023-02-09T14:45:37.764Z,9.20
2023-02-09T14:48:24.348Z,9.80
2023-02-09T14:51:02.986Z,11.20
2023-02-09T14:53:33.217Z,10.00
2023-02-09T14:56:01.747Z,9.70
2023-02-09T14:58:32.686Z,11.40
2023-02-09T15:01:03.284Z,15.60
2023-02-09T15:03:31.857Z,16.20
2023-02-09T15:06:04.487Z,15.40
2023-02-09T15:08:37.715Z,15.50
2023-02-09T15:11:29.663Z,16.20
2023-02-09T15:14:04.265Z,15.70
2023-02-09T15:16:33.159Z,16.80
2023-02-09T15:19:05.492Z,18.20
2023-02-09T15:21:34.104Z,16.70
2023-02-09T15:24:02.500Z,16.90
2023-02-09T15:26:34.769Z,16.90
2023-02-09T15:29:13.391Z,17.00
2023-02-09T15:31:42.120Z,17.30
2023-02-09T15:34:12.418Z,19.00
2023-02-09T15:36:41.697Z,19.10
2023-02-09T15:39:25.405Z,20.50
2023-02-09T15:42:12.264Z,18.80
2023-02-09T15:44:59.136Z,18.30
2023-02-09T15:47:46.053Z,17.30
2023-02-09T15:50:14.640Z,16.60
2023-02-09T15:52:43.201Z,17.50
2023-02-09T15:55:19.629Z,16.40
2023-02-09T15:57:52.547Z,13.30
2023-02-09T16:00:29.901Z,15.50
2023-02-09T16:03:01.711Z,16.20
2023-02-09T16:05:30.503Z,14.70
2023-02-09T16:07:59.801Z,15.40
2023-02-09T16:10:30.333Z,19.30
2023-02-09T16:12:58.752Z,18.70
2023-02-09T16:15:27.568Z,18.90
2023-02-09T16:17:55.973Z,19.20
2023-02-09T16:20:26.246Z,20.60
2023-02-09T16:22:57.480Z,19.30
2023-02-09T16:25:27.693Z,21.40
2023-02-09T16:27:57.843Z,20.10
2023-02-09T16:30:30.610Z,17.70
2023-02-09T16:32:59.065Z,17.20
2023-02-09T16:35:27.478Z,18.30
2023-02-09T16:37:56.520Z,18.70
2023-02-09T16:40:33.442Z,18.90
2023-02-09T16:43:02.226Z,18.50
2023-02-09T16:45:35.226Z,19.70
2023-02-09T16:48:05.164Z,20.80
2023-02-09T16:50:42.211Z,19.10
2023-02-09T16:53:39.506Z,22.00
2023-02-09T16:56:10.398Z,21.10
2023-02-09T16:58:39.913Z,22.30
2023-02-09T17:01:21.477Z,21.00
2023-02-09T17:03:54.642Z,21.60
2023-02-09T17:06:29.263Z,23.00
2023-02-09T17:08:58.863Z,21.10
2023-02-09T17:11:28.528Z,20.00
2023-02-09T17:13:56.996Z,16.70
2023-02-09T17:16:33.148Z,21.00
2023-02-09T17:19:03.661Z,16.10
2023-02-09T17:21:36.630Z,13.80
2023-02-09T17:24:12.068Z,18.40
2023-02-09T17:26:40.877Z,20.00
2023-02-09T17:29:10.183Z,19.90
2023-02-09T17:31:52.813Z,20.90
2023-02-09T17:34:27.775Z,20.70
2023-02-09T17:36:57.772Z,18.30
2023-02-09T17:39:26.162Z,19.00
2023-02-09T17:41:54.626Z,17.90
2023-02-09T17:44:45.040Z,14.60
2023-02-09T17:47:20.353Z,16.30
2023-02-09T17:49:48.781Z,16.50
2023-02-09T17:52:19.783Z,17.60
2023-02-09T17:54:49.481Z,18.50
2023-02-09T17:57:18.284Z,17.40
2023-02-09T17:59:48.044Z,17.80
2023-02-09T18:02:19.940Z,18.00
2023-02-09T18:04:48.734Z,16.70
2023-02-09T18:07:20.693Z,17.40
2023-02-09T18:09:49.449Z,17.80
2023-02-09T18:12:27.237Z,15.00
2023-02-09T18:14:56.449Z,17.90
2023-02-09T18:17:24.949Z,15.90
2023-02-09T18:19:53.352Z,15.20
2023-02-09T18:22:21.837Z,15.70
2023-02-09T18:24:50.296Z,17.90
2023-02-09T18:27:25.784Z,17.20
2023-02-09T18:29:54.285Z,16.60
2023-02-09T18:32:24.107Z,18.90
2023-02-09T18:34:52.574Z,17.00
2023-02-09T18:37:20.990Z,18.50
2023-02-09T18:39:49.412Z,19.70
2023-02-09T18:42:17.791Z,17.90
2023-02-09T18:44:46.257Z,17.00
2023-02-09T18:47:14.890Z,17.60
2023-02-09T18:49:43.516Z,16.70
2023-02-09T18:52:20.980Z,16.60
2023-02-09T18:54:49.402Z,20.00
2023-02-09T18:57:18.015Z,18.70
2023-02-09T18:59:47.833Z,19.70
2023-02-09T19:02:16.622Z,21.50
2023-02-09T19:04:45.078Z,19.50
2023-02-09T19:07:14.512Z,22.90
2023-02-09T19:09:46.055Z,20.50
2023-02-09T19:12:14.605Z,12.40
2023-02-09T19:14:46.003Z,18.80
2023-02-09T19:17:21.812Z,20.80
2023-02-09T19:19:51.067Z,18.50
2023-02-09T19:22:21.991Z,18.50
2023-02-09T19:24:53.173Z,20.50
2023-02-09T19:27:22.056Z,17.70
2023-02-09T19:29:55.040Z,17.20
2023-02-09T19:32:24.852Z,20.40
2023-02-09T19:34:53.403Z,20.70
2023-02-09T19:37:22.438Z,21.30
2023-02-09T19:39:53.924Z,20.60
2023-02-09T19:42:22.905Z,19.50
2023-02-09T19:44:54.688Z,20.00
2023-02-09T19:47:26.117Z,18.80
2023-02-09T19:49:57.997Z,17.00
2023-02-09T19:52:28.374Z,19.30
2023-02-09T19:54:57.951Z,19.10
2023-02-09T19:57:26.655Z,20.20
2023-02-09T19:59:55.164Z,19.90
2023-02-09T20:02:23.664Z,21.90
2023-02-09T20:04:52.382Z,20.40
2023-02-09T20:07:20.934Z,22.00
2023-02-09T20:09:52.566Z,24.50
2023-02-09T20:12:22.192Z,26.70
2023-02-09T20:14:51.067Z,26.90
2023-02-09T20:19:52.712Z,29.00
2023-02-09T20:22:21.888Z,32.40
2023-02-09T20:24:50.508Z,31.40
2023-02-09T20:27:19.327Z,27.50
2023-02-09T20:29:47.815Z,27.50
2023-02-09T20:32:16.235Z,32.80
2023-02-09T20:34:44.722Z,33.70
2023-02-09T20:37:13.114Z,35.90
2023-02-09T20:39:41.500Z,36.70
2023-02-09T20:42:28.509Z,39.90
2023-02-09T20:45:15.637Z,32.10
2023-02-09T20:47:44.030Z,31.30
2023-02-09T20:50:13.950Z,32.10
2023-02-09T20:52:45.822Z,32.90
2023-02-09T20:55:15.588Z,26.20
2023-02-09T20:57:44.194Z,25.00
2023-02-09T21:00:13.300Z,22.50
2023-02-09T21:02:41.775Z,25.90
2023-02-09T21:05:10.301Z,24.80
2023-02-09T21:07:38.990Z,28.50
2023-02-09T21:10:07.972Z,31.50
2023-02-09T21:12:36.403Z,29.90
2023-02-09T21:15:05.245Z,26.60
2023-02-09T21:17:33.672Z,24.40
2023-02-09T21:20:02.407Z,23.90
2023-02-09T21:22:30.876Z,23.00
2023-02-09T21:24:59.282Z,25.50
2023-02-09T21:27:27.794Z,23.00
2023-02-09T21:29:57.243Z,21.70
2023-02-09T21:32:25.708Z,19.90
2023-02-09T21:34:54.173Z,19.80
2023-02-09T21:37:23.005Z,24.70
2023-02-09T21:39:51.411Z,18.90
2023-02-09T21:42:29.796Z,21.50
2023-02-09T21:44:59.771Z,20.00
2023-02-09T21:47:34.716Z,18.30
2023-02-09T21:50:05.766Z,15.90
2023-02-09T21:52:34.759Z,18.80
2023-02-09T21:55:04.930Z,20.00
2023-02-09T21:57:33.929Z,18.90
2023-02-09T22:00:05.662Z,20.10
2023-02-09T22:02:34.106Z,19.20
2023-02-09T22:05:03.127Z,19.40
2023-02-09T22:07:31.655Z,19.70
2023-02-09T22:10:02.127Z,19.00
2023-02-09T22:12:30.612Z,20.20
2023-02-09T22:14:59.031Z,26.50
2023-02-09T22:17:27.537Z,20.10
2023-02-09T22:19:55.964Z,24.10
2023-02-09T22:22:24.448Z,24.90
2023-02-09T22:24:52.828Z,20.50
2023-02-09T22:27:21.280Z,24.00
2023-02-09T22:29:49.782Z,19.20
2023-02-09T22:32:19.093Z,21.10
2023-02-09T22:34:47.514Z,17.00
2023-02-09T22:37:15.883Z,5.20
2023-02-09T22:39:45.132Z,5.70
2023-02-09T22:42:13.714Z,11.10
2023-02-09T22:44:42.184Z,14.30
2023-02-09T22:47:10.633Z,13.70
2023-02-09T22:49:39.186Z,14.30
2023-02-09T22:52:07.677Z,14.80
2023-02-09T22:54:36.402Z,12.40
2023-02-09T22:57:04.968Z,11.90
2023-02-09T22:59:33.414Z,13.40
2023-02-09T23:02:02.869Z,11.10
2023-02-09T23:04:32.977Z,13.10
2023-02-09T23:07:02.206Z,11.50
2023-02-09T23:09:31.642Z,12.80
2023-02-09T23:12:00.117Z,12.50
2023-02-09T23:14:28.797Z,12.50
2023-02-09T23:16:57.226Z,11.70
2023-02-09T23:19:25.823Z,14.70
2023-02-09T23:21:54.230Z,12.10
2023-02-09T23:24:24.658Z,12.80
2023-02-09T23:26:53.345Z,15.10
2023-02-09T23:29:22.081Z,13.60
2023-02-09T23:31:50.669Z,15.80
2023-02-09T23:34:22.678Z,16.00
2023-02-09T23:36:51.446Z,14.70
2023-02-09T23:39:26.946Z,15.60
2023-02-09T23:41:55.410Z,13.70
2023-02-09T23:44:23.993Z,14.70
2023-02-09T23:46:52.390Z,12.90
2023-02-09T23:49:22.823Z,15.00
2023-02-09T23:51:51.491Z,13.80
2023-02-09T23:54:20.063Z,12.40
2023-02-09T23:56:50.392Z,14.90
2023-02-09T23:59:18.771Z,12.90
